createdAt,value
2023-05-14T00:00:58.205Z,93.63
2023-05-14T00:01:58.432Z,93.52
2023-05-14T00:02:58.577Z,93.52
2023-05-14T00:03:58.787Z,93.63
2023-05-14T00:04:58.504Z,93.52
2023-05-14T00:05:58.576Z,93.57
2023-05-14T00:06:58.646Z,93.47
2023-05-14T00:07:58.712Z,93.37
2023-05-14T00:08:58.792Z,93.26
2023-05-14T00:09:58.849Z,93.16
2023-05-14T00:10:58.927Z,93.20
2023-05-14T00:11:58.991Z,93.20
2023-05-14T00:12:59.050Z,93.30
2023-05-14T00:13:59.120Z,93.51
2023-05-14T00:14:59.241Z,93.62
2023-05-14T00:15:59.352Z,93.62
2023-05-14T00:16:59.396Z,93.62
2023-05-14T00:17:59.507Z,93.92
2023-05-14T00:18:59.569Z,94.08
2023-05-14T00:19:59.636Z,93.98
2023-05-14T00:20:59.763Z,93.82
2023-05-14T00:21:59.811Z,93.71
2023-05-14T00:22:59.923Z,93.62
2023-05-14T00:24:00.022Z,93.41
2023-05-14T00:25:00.110Z,93.30
2023-05-14T00:26:00.213Z,93.20
2023-05-14T00:27:00.273Z,93.20
2023-05-14T00:28:00.320Z,93.10
2023-05-14T00:29:00.457Z,93.15
2023-05-14T00:30:00.505Z,93.25
2023-05-14T00:31:00.609Z,93.55
2023-05-14T00:32:00.654Z,93.66
2023-05-14T00:33:00.795Z,93.76
2023-05-14T00:34:00.812Z,93.66
2023-05-14T00:35:00.910Z,93.66
2023-05-14T00:36:01.015Z,93.76
2023-05-14T00:37:01.092Z,93.86
2023-05-14T00:38:01.177Z,93.86
2023-05-14T00:39:01.277Z,93.86
2023-05-14T00:40:01.365Z,93.86
2023-05-14T00:41:01.466Z,93.86
2023-05-14T00:42:01.515Z,93.76
2023-05-14T00:43:01.606Z,93.86
2023-05-14T00:44:01.662Z,93.86
2023-05-14T00:45:01.765Z,93.96
2023-05-14T00:46:01.853Z,94.07
2023-05-14T00:47:02.086Z,94.17
2023-05-14T00:48:02.058Z,94.33
2023-05-14T00:49:02.063Z,94.33
2023-05-14T00:50:02.112Z,94.23
2023-05-14T00:51:02.238Z,94.07
2023-05-14T00:52:02.291Z,93.86
2023-05-14T00:53:02.391Z,93.76
2023-05-14T00:54:02.474Z,93.76
2023-05-14T00:55:02.565Z,93.66
2023-05-14T00:56:02.636Z,93.55
2023-05-14T00:57:02.713Z,93.55
2023-05-14T00:58:02.777Z,93.66
2023-05-14T00:59:02.878Z,93.66
2023-05-14T01:00:02.934Z,93.55
2023-05-14T01:01:03.238Z,93.45
2023-05-14T01:02:03.076Z,93.45
2023-05-14T01:03:03.234Z,93.45
2023-05-14T01:04:03.367Z,93.45
2023-05-14T01:05:03.338Z,93.55
2023-05-14T01:06:03.460Z,93.66
2023-05-14T01:07:03.496Z,93.86
2023-05-14T01:08:03.570Z,93.96
2023-05-14T01:09:03.678Z,93.86
2023-05-14T01:10:03.763Z,93.76
2023-05-14T01:11:03.908Z,93.66
2023-05-14T01:12:03.946Z,93.55
2023-05-14T01:13:04.022Z,93.60
2023-05-14T01:14:04.069Z,93.60
2023-05-14T01:15:04.167Z,93.60
2023-05-14T01:16:04.274Z,93.60
2023-05-14T01:17:04.317Z,93.70
2023-05-14T01:18:04.443Z,93.70
2023-05-14T01:19:04.508Z,93.90
2023-05-14T01:20:04.585Z,93.80
2023-05-14T01:21:04.695Z,93.90
2023-05-14T01:22:04.741Z,93.90
2023-05-14T01:23:04.831Z,93.80
2023-05-14T01:24:04.933Z,93.85
2023-05-14T01:25:05.069Z,93.74
2023-05-14T01:26:05.108Z,93.74
2023-05-14T01:27:05.160Z,93.74
2023-05-14T01:28:05.257Z,93.85
2023-05-14T01:29:05.340Z,93.74
2023-05-14T01:30:05.431Z,93.85
2023-05-14T01:31:05.538Z,93.95
2023-05-14T01:32:05.710Z,94.05
2023-05-14T01:33:05.679Z,94.15
2023-05-14T01:34:05.725Z,94.46
2023-05-14T01:35:05.780Z,94.46
2023-05-14T01:36:06.049Z,94.52
2023-05-14T01:37:05.941Z,94.62
2023-05-14T01:38:06.046Z,94.62
2023-05-14T01:39:06.102Z,94.83
2023-05-14T01:40:06.177Z,94.83
2023-05-14T01:41:06.283Z,94.73
2023-05-14T01:42:06.342Z,94.73
2023-05-14T01:43:06.560Z,94.52
2023-05-14T01:44:06.486Z,94.32
2023-05-14T01:45:06.569Z,94.01
2023-05-14T01:46:06.737Z,94.11
2023-05-14T01:47:06.727Z,94.11
2023-05-14T01:48:06.894Z,94.01
2023-05-14T01:49:06.894Z,94.11
2023-05-14T01:50:06.999Z,94.15
2023-05-14T01:51:07.096Z,94.36
2023-05-14T01:52:07.190Z,94.46
2023-05-14T01:53:07.256Z,94.26
2023-05-14T01:54:07.345Z,94.26
2023-05-14T01:55:07.417Z,94.05
2023-05-14T01:56:07.522Z,94.05
2023-05-14T01:57:07.605Z,93.95
2023-05-14T01:58:07.692Z,94.05
2023-05-14T01:59:07.777Z,94.05
2023-05-14T02:00:07.876Z,94.15
2023-05-14T02:01:08.420Z,94.15
2023-05-14T02:02:08.013Z,94.15
2023-05-14T02:03:08.124Z,94.05
2023-05-14T02:04:08.242Z,94.15
2023-05-14T02:05:08.238Z,94.05
2023-05-14T02:06:08.340Z,93.99
2023-05-14T02:07:08.392Z,94.20
2023-05-14T02:08:08.480Z,94.30
2023-05-14T02:09:08.567Z,94.61
2023-05-14T02:10:08.668Z,94.81
2023-05-14T02:11:08.751Z,95.02
2023-05-14T02:12:08.845Z,95.02
2023-05-14T02:13:08.907Z,94.92
2023-05-14T02:14:09.004Z,94.92
2023-05-14T02:15:09.099Z,94.81
2023-05-14T02:16:09.239Z,94.71
2023-05-14T02:17:09.233Z,94.61
2023-05-14T02:18:09.362Z,94.40
2023-05-14T02:19:09.523Z,94.30
2023-05-14T02:20:09.463Z,94.40
2023-05-14T02:21:09.561Z,94.51
2023-05-14T02:22:09.651Z,94.61
2023-05-14T02:23:09.730Z,94.61
2023-05-14T02:24:09.819Z,94.51
2023-05-14T02:25:09.909Z,94.61
2023-05-14T02:26:09.977Z,94.71
2023-05-14T02:27:10.023Z,94.71
2023-05-14T02:28:10.097Z,94.61
2023-05-14T02:29:10.178Z,94.61
2023-05-14T02:30:10.269Z,94.61
2023-05-14T02:31:10.395Z,94.61
2023-05-14T02:32:10.462Z,94.51
2023-05-14T02:33:10.589Z,94.30
2023-05-14T02:34:10.609Z,94.20
2023-05-14T02:35:10.711Z,94.20
2023-05-14T02:36:10.829Z,94.14
2023-05-14T02:37:10.869Z,93.93
2023-05-14T02:38:10.947Z,93.93
2023-05-14T02:39:11.036Z,93.83
2023-05-14T02:40:11.120Z,93.63
2023-05-14T02:41:11.226Z,93.73
2023-05-14T02:42:11.310Z,93.93
2023-05-14T02:43:11.341Z,94.08
2023-05-14T02:44:11.425Z,94.24
2023-05-14T02:45:11.517Z,94.34
2023-05-14T02:46:11.633Z,94.24
2023-05-14T02:47:11.733Z,94.14
2023-05-14T02:48:11.823Z,94.24
2023-05-14T02:49:11.832Z,94.34
2023-05-14T02:50:11.922Z,94.45
2023-05-14T02:51:12.013Z,94.45
2023-05-14T02:52:12.099Z,94.18
2023-05-14T02:53:12.172Z,94.08
2023-05-14T02:54:12.269Z,94.48
2023-05-14T02:55:12.324Z,95.20
2023-05-14T02:56:12.425Z,95.71
2023-05-14T02:57:12.493Z,96.12
2023-05-14T02:58:12.589Z,96.47
2023-05-14T02:59:12.669Z,96.68
2023-05-14T03:00:12.766Z,97.15
2023-05-14T03:01:12.933Z,97.36
2023-05-14T03:02:12.997Z,97.15
2023-05-14T03:03:13.033Z,97.15
2023-05-14T03:04:13.089Z,97.25
2023-05-14T03:05:13.170Z,97.15
2023-05-14T03:06:13.284Z,97.25
2023-05-14T03:07:13.339Z,97.15
2023-05-14T03:08:13.439Z,97.15
2023-05-14T03:09:13.494Z,96.84
2023-05-14T03:10:13.598Z,96.94
2023-05-14T03:11:13.689Z,96.84
2023-05-14T03:12:13.781Z,96.69
2023-05-14T03:13:13.857Z,96.48
2023-05-14T03:14:13.955Z,96.18
2023-05-14T03:15:14.044Z,95.93
2023-05-14T03:16:14.167Z,95.62
2023-05-14T03:17:14.199Z,95.52
2023-05-14T03:18:14.290Z,95.31
2023-05-14T03:19:14.488Z,95.21
2023-05-14T03:20:14.442Z,95.21
2023-05-14T03:21:14.560Z,95.10
2023-05-14T03:22:14.610Z,95.01
2023-05-14T03:23:14.701Z,94.80
2023-05-14T03:24:14.763Z,94.74
2023-05-14T03:25:14.853Z,94.64
2023-05-14T03:26:14.926Z,94.64
2023-05-14T03:27:15.034Z,94.54
2023-05-14T03:28:15.122Z,94.54
2023-05-14T03:29:15.179Z,94.54
2023-05-14T03:30:15.240Z,94.54
2023-05-14T03:31:15.355Z,94.54
2023-05-14T03:32:15.395Z,94.48
2023-05-14T03:33:15.493Z,94.58
2023-05-14T03:34:15.549Z,94.68
2023-05-14T03:35:15.644Z,94.89
2023-05-14T03:36:15.733Z,94.89
2023-05-14T03:37:15.817Z,94.84
2023-05-14T03:38:15.856Z,94.84
2023-05-14T03:39:15.954Z,94.84
2023-05-14T03:40:16.053Z,94.84
2023-05-14T03:41:16.167Z,94.74
2023-05-14T03:42:16.187Z,94.68
2023-05-14T03:43:16.283Z,94.48
2023-05-14T03:44:16.357Z,94.37
2023-05-14T03:45:16.470Z,94.27
2023-05-14T03:46:16.573Z,94.07
2023-05-14T03:47:16.637Z,94.07
2023-05-14T03:48:16.852Z,94.07
2023-05-14T03:49:16.804Z,94.07
2023-05-14T03:50:16.870Z,94.17
2023-05-14T03:51:16.987Z,94.17
2023-05-14T03:52:17.037Z,94.07
2023-05-14T03:53:17.144Z,94.17
2023-05-14T03:54:17.215Z,94.27
2023-05-14T03:55:17.304Z,94.27
2023-05-14T03:56:17.409Z,94.17
2023-05-14T03:57:17.497Z,94.17
2023-05-14T03:58:17.615Z,94.07
2023-05-14T03:59:17.677Z,93.96
2023-05-14T04:00:17.761Z,93.76
2023-05-14T04:01:17.879Z,93.76
2023-05-14T04:02:17.916Z,93.65
2023-05-14T04:03:18.058Z,93.76
2023-05-14T04:04:18.106Z,93.65
2023-05-14T04:05:18.174Z,93.55
2023-05-14T04:06:18.254Z,93.65
2023-05-14T04:07:18.332Z,93.55
2023-05-14T04:08:18.422Z,93.65
2023-05-14T04:09:18.481Z,93.65
2023-05-14T04:10:18.557Z,93.65
2023-05-14T04:11:18.680Z,93.65
2023-05-14T04:12:18.711Z,93.65
2023-05-14T04:13:18.798Z,93.76
2023-05-14T04:14:18.873Z,93.86
2023-05-14T04:15:19.002Z,93.96
2023-05-14T04:16:19.067Z,94.07
2023-05-14T04:17:19.128Z,94.58
2023-05-14T04:18:19.235Z,94.58
2023-05-14T04:19:19.315Z,94.58
2023-05-14T04:20:19.364Z,94.58
2023-05-14T04:21:19.602Z,94.58
2023-05-14T04:22:19.516Z,94.58
2023-05-14T04:23:19.594Z,94.68
2023-05-14T04:24:19.652Z,94.68
2023-05-14T04:25:19.747Z,94.68
2023-05-14T04:26:19.822Z,94.68
2023-05-14T04:27:19.874Z,94.74
2023-05-14T04:28:19.962Z,94.74
2023-05-14T04:29:20.081Z,94.74
2023-05-14T04:30:20.135Z,94.54
2023-05-14T04:31:20.295Z,94.54
2023-05-14T04:32:20.290Z,94.64
2023-05-14T04:33:20.364Z,94.70
2023-05-14T04:34:20.453Z,94.59
2023-05-14T04:35:22.119Z,94.49
2023-05-14T04:36:20.607Z,94.29
2023-05-14T04:37:20.714Z,93.87
2023-05-14T04:38:20.754Z,93.46
2023-05-14T04:39:20.857Z,93.26
2023-05-14T04:40:20.917Z,93.32
2023-05-14T04:41:21.020Z,93.42
2023-05-14T04:42:21.077Z,93.32
2023-05-14T04:43:21.183Z,93.12
2023-05-14T04:44:21.223Z,93.01
2023-05-14T04:45:21.345Z,92.91
2023-05-14T04:46:21.420Z,92.91
2023-05-14T04:47:21.521Z,92.91
2023-05-14T04:48:21.519Z,92.91
2023-05-14T04:49:21.604Z,93.01
2023-05-14T04:50:22.048Z,93.12
2023-05-14T04:51:21.781Z,93.17
2023-05-14T04:52:21.826Z,93.07
2023-05-14T04:53:21.935Z,92.97
2023-05-14T04:54:22.013Z,92.97
2023-05-14T04:55:22.096Z,92.97
2023-05-14T04:56:22.143Z,92.97
2023-05-14T04:57:22.199Z,92.97
2023-05-14T04:58:22.278Z,92.97
2023-05-14T04:59:22.388Z,92.72
2023-05-14T05:00:22.789Z,92.31
2023-05-14T05:01:22.561Z,92.10
2023-05-14T05:02:22.540Z,91.90
2023-05-14T05:03:22.748Z,91.90
2023-05-14T05:04:22.732Z,92.00
2023-05-14T05:05:22.791Z,92.31
2023-05-14T05:06:22.924Z,92.41
2023-05-14T05:07:22.991Z,92.41
2023-05-14T05:08:23.027Z,92.41
2023-05-14T05:09:23.140Z,92.41
2023-05-14T05:10:23.485Z,92.36
2023-05-14T05:11:23.306Z,92.36
2023-05-14T05:12:23.348Z,92.36
2023-05-14T05:13:23.442Z,92.27
2023-05-14T05:14:23.497Z,92.36
2023-05-14T05:15:25.912Z,92.27
2023-05-14T05:16:23.716Z,92.16
2023-05-14T05:17:23.768Z,92.22
2023-05-14T05:18:23.826Z,92.32
2023-05-14T05:19:35.863Z,92.32
2023-05-14T05:20:24.187Z,92.43
2023-05-14T05:21:24.118Z,92.43
2023-05-14T05:22:24.182Z,92.43
2023-05-14T05:23:24.238Z,92.63
2023-05-14T05:24:24.316Z,92.74
2023-05-14T05:25:24.397Z,92.94
2023-05-14T05:26:24.490Z,93.04
2023-05-14T05:27:24.572Z,93.15
2023-05-14T05:28:24.666Z,93.10
2023-05-14T05:29:24.756Z,93.00
2023-05-14T05:30:25.081Z,93.00
2023-05-14T05:31:25.020Z,92.49
2023-05-14T05:32:25.005Z,92.59
2023-05-14T05:33:25.060Z,92.63
2023-05-14T05:34:25.153Z,92.69
2023-05-14T05:35:25.264Z,92.90
2023-05-14T05:36:25.377Z,92.90
2023-05-14T05:37:25.424Z,93.00
2023-05-14T05:38:25.489Z,93.00
2023-05-14T05:39:25.574Z,93.10
2023-05-14T05:40:25.845Z,92.96
2023-05-14T05:41:25.776Z,92.96
2023-05-14T05:42:25.815Z,93.06
2023-05-14T05:43:25.883Z,93.06
2023-05-14T05:44:25.973Z,93.16
2023-05-14T05:45:26.072Z,93.01
2023-05-14T05:46:26.183Z,93.01
2023-05-14T05:47:26.302Z,92.36
2023-05-14T05:48:26.306Z,92.11
2023-05-14T05:49:26.412Z,91.92
2023-05-14T05:50:26.455Z,89.94
2023-05-14T05:51:26.561Z,88.32
2023-05-14T05:52:26.622Z,84.88
2023-05-14T05:53:26.724Z,82.80
2023-05-14T05:54:26.799Z,82.56
2023-05-14T05:55:26.909Z,82.18
2023-05-14T05:56:28.506Z,78.44
2023-05-14T05:57:27.041Z,77.39
2023-05-14T05:58:27.130Z,76.14
2023-05-14T05:59:27.195Z,75.73
2023-05-14T06:00:27.408Z,76.10
2023-05-14T06:01:27.401Z,75.42
2023-05-14T06:02:27.528Z,74.04
2023-05-14T06:03:27.538Z,73.09
2023-05-14T06:04:27.600Z,71.50
2023-05-14T06:05:27.732Z,70.46
2023-05-14T06:06:27.755Z,70.12
2023-05-14T06:07:27.870Z,69.01
2023-05-14T06:08:27.932Z,70.49
2023-05-14T06:09:28.022Z,68.64
2023-05-14T06:10:28.075Z,68.68
2023-05-14T06:11:28.186Z,67.63
2023-05-14T06:12:28.290Z,65.39
2023-05-14T06:13:28.339Z,65.22
2023-05-14T06:14:28.387Z,66.22
2023-05-14T06:15:28.488Z,66.13
2023-05-14T06:16:28.604Z,66.80
2023-05-14T06:17:28.753Z,65.56
2023-05-14T06:18:28.748Z,65.59
2023-05-14T06:19:28.841Z,65.44
2023-05-14T06:20:28.964Z,63.03
2023-05-14T06:21:29.020Z,61.00
2023-05-14T06:22:29.086Z,60.10
2023-05-14T06:23:29.175Z,62.00
2023-05-14T06:24:29.264Z,61.34
2023-05-14T06:25:29.369Z,60.38
2023-05-14T06:26:29.454Z,59.31
2023-05-14T06:27:29.603Z,59.78
2023-05-14T06:28:29.637Z,58.75
2023-05-14T06:29:29.693Z,58.42
2023-05-14T06:30:29.786Z,57.92
2023-05-14T06:31:29.904Z,57.50
2023-05-14T06:32:29.994Z,57.29
2023-05-14T06:33:30.056Z,56.44
2023-05-14T06:34:30.134Z,55.64
2023-05-14T06:35:30.186Z,55.88
2023-05-14T06:36:30.298Z,55.04
2023-05-14T06:37:30.365Z,53.31
2023-05-14T06:38:30.419Z,52.51
2023-05-14T06:39:30.521Z,54.46
2023-05-14T06:40:30.597Z,55.62
2023-05-14T06:41:30.723Z,56.24
2023-05-14T06:42:30.812Z,55.34
2023-05-14T06:43:30.872Z,56.16
2023-05-14T06:44:30.919Z,55.81
2023-05-14T06:45:33.211Z,55.58
2023-05-14T06:46:31.096Z,54.86
2023-05-14T06:47:31.316Z,53.52
2023-05-14T06:48:31.316Z,52.89
2023-05-14T06:49:31.347Z,53.11
2023-05-14T06:50:31.401Z,53.41
2023-05-14T06:51:31.497Z,52.79
2023-05-14T06:52:31.589Z,53.31
2023-05-14T06:53:31.661Z,53.02
2023-05-14T06:54:31.717Z,53.99
2023-05-14T06:55:31.813Z,55.34
2023-05-14T06:56:31.870Z,55.71
2023-05-14T06:57:32.041Z,54.99
2023-05-14T06:58:32.054Z,54.27
2023-05-14T06:59:32.157Z,56.09
2023-05-14T07:00:32.209Z,54.46
2023-05-14T07:01:32.347Z,54.19
2023-05-14T07:02:32.444Z,54.27
2023-05-14T07:03:32.459Z,54.27
2023-05-14T07:04:32.572Z,54.14
2023-05-14T07:05:32.656Z,53.89
2023-05-14T07:06:32.709Z,52.34
2023-05-14T07:07:32.822Z,51.12
2023-05-14T07:08:32.886Z,51.37
2023-05-14T07:09:32.985Z,50.40
2023-05-14T07:10:33.089Z,48.42
2023-05-14T07:11:33.179Z,47.88
2023-05-14T07:12:33.359Z,47.83
2023-05-14T07:13:33.363Z,46.33
2023-05-14T07:14:33.426Z,46.30
2023-05-14T07:15:33.512Z,45.59
2023-05-14T07:16:33.576Z,44.84
2023-05-14T07:17:33.713Z,46.74
2023-05-14T07:18:33.730Z,45.83
2023-05-14T07:19:33.803Z,45.53
2023-05-14T07:20:33.857Z,46.20
2023-05-14T07:21:33.947Z,45.21
2023-05-14T07:22:34.053Z,46.75
2023-05-14T07:23:34.109Z,45.00
2023-05-14T07:24:34.171Z,45.29
2023-05-14T07:25:34.274Z,45.98
2023-05-14T07:26:34.329Z,45.98
2023-05-14T07:27:34.451Z,45.17
2023-05-14T07:28:34.482Z,45.41
2023-05-14T07:29:34.594Z,47.66
2023-05-14T07:30:34.645Z,45.54
2023-05-14T07:31:34.852Z,45.30
2023-05-14T07:32:34.879Z,44.49
2023-05-14T07:33:34.875Z,43.38
2023-05-14T07:34:34.970Z,43.01
2023-05-14T07:35:35.052Z,44.12
2023-05-14T07:36:35.148Z,43.92
2023-05-14T07:37:35.241Z,44.26
2023-05-14T07:38:35.302Z,44.09
2023-05-14T07:39:35.360Z,45.74
2023-05-14T07:40:35.460Z,44.42
2023-05-14T07:41:35.559Z,43.19
2023-05-14T07:42:36.967Z,42.99
2023-05-14T07:43:35.718Z,42.85
2023-05-14T07:44:35.825Z,42.26
2023-05-14T07:45:35.899Z,42.16
2023-05-14T07:46:35.973Z,42.85
2023-05-14T07:47:36.115Z,43.03
2023-05-14T07:48:36.143Z,42.07
2023-05-14T07:49:36.232Z,42.87
2023-05-14T07:50:36.246Z,42.36
2023-05-14T07:51:36.334Z,42.52
2023-05-14T07:52:36.446Z,40.43
2023-05-14T07:53:36.487Z,40.43
2023-05-14T07:54:36.576Z,40.03
2023-05-14T07:55:36.668Z,40.41
2023-05-14T07:56:36.755Z,39.72
2023-05-14T07:57:36.818Z,40.35
2023-05-14T07:58:36.877Z,40.25
2023-05-14T07:59:36.938Z,40.62
2023-05-14T08:00:37.059Z,40.88
2023-05-14T08:01:39.178Z,41.73
2023-05-14T08:02:37.365Z,40.41
2023-05-14T08:03:37.359Z,39.48
2023-05-14T08:04:37.487Z,39.39
2023-05-14T08:05:37.440Z,38.82
2023-05-14T08:06:37.540Z,40.98
2023-05-14T08:07:37.650Z,41.86
2023-05-14T08:08:37.697Z,42.22
2023-05-14T08:09:37.773Z,43.29
2023-05-14T08:10:37.909Z,42.46
2023-05-14T08:11:37.959Z,41.96
2023-05-14T08:12:38.072Z,42.59
2023-05-14T08:13:38.117Z,41.64
2023-05-14T08:14:38.211Z,40.16
2023-05-14T08:15:38.294Z,39.92
2023-05-14T08:16:38.445Z,38.72
2023-05-14T08:17:38.543Z,38.90
2023-05-14T08:18:38.603Z,37.61
2023-05-14T08:19:38.642Z,37.54
2023-05-14T08:20:38.729Z,37.65
2023-05-14T08:21:38.788Z,37.15
2023-05-14T08:22:38.907Z,37.73
2023-05-14T08:23:38.960Z,38.33
2023-05-14T08:24:39.065Z,39.45
2023-05-14T08:25:39.136Z,40.35
2023-05-14T08:26:39.235Z,39.94
2023-05-14T08:27:39.344Z,40.29
2023-05-14T08:28:39.393Z,39.27
2023-05-14T08:29:39.491Z,37.29
2023-05-14T08:30:39.603Z,36.51
2023-05-14T08:31:39.666Z,35.44
2023-05-14T08:32:39.817Z,36.80
2023-05-14T08:33:39.825Z,35.22
2023-05-14T08:34:39.937Z,35.04
2023-05-14T08:35:40.002Z,36.33
2023-05-14T08:36:40.107Z,37.52
2023-05-14T08:37:40.186Z,35.10
2023-05-14T08:38:40.237Z,36.98
2023-05-14T08:39:40.321Z,36.47
2023-05-14T08:40:40.371Z,36.86
2023-05-14T08:41:40.459Z,37.05
2023-05-14T08:42:40.585Z,37.23
2023-05-14T08:43:40.637Z,36.72
2023-05-14T08:44:40.740Z,36.51
2023-05-14T08:45:40.805Z,35.79
2023-05-14T08:46:40.907Z,35.58
2023-05-14T08:47:41.042Z,35.87
2023-05-14T08:48:41.050Z,35.87
2023-05-14T08:49:41.129Z,35.14
2023-05-14T08:50:41.171Z,35.16
2023-05-14T08:51:41.224Z,36.14
2023-05-14T08:52:41.390Z,35.44
2023-05-14T08:53:41.391Z,35.73
2023-05-14T08:54:41.501Z,37.02
2023-05-14T08:55:41.546Z,36.32
2023-05-14T08:56:41.642Z,36.22
2023-05-14T08:57:41.718Z,36.59
2023-05-14T08:58:41.772Z,36.98
2023-05-14T08:59:41.832Z,36.36
2023-05-14T09:00:41.921Z,35.87
2023-05-14T09:01:42.078Z,35.89
2023-05-14T09:02:42.173Z,36.59
2023-05-14T09:03:42.208Z,37.02
2023-05-14T09:04:42.238Z,36.82
2023-05-14T09:05:42.320Z,37.19
2023-05-14T09:06:42.417Z,37.61
2023-05-14T09:07:42.480Z,36.92
2023-05-14T09:08:42.577Z,37.00
2023-05-14T09:09:42.689Z,37.00
2023-05-14T09:10:42.764Z,36.96
2023-05-14T09:11:42.848Z,37.14
2023-05-14T09:12:42.958Z,35.95
2023-05-14T09:13:43.013Z,35.82
2023-05-14T09:14:43.062Z,34.28
2023-05-14T09:15:43.167Z,34.29
2023-05-14T09:16:43.319Z,35.28
2023-05-14T09:17:43.362Z,36.07
2023-05-14T09:18:43.434Z,36.67
2023-05-14T09:19:43.469Z,36.87
2023-05-14T09:20:43.563Z,36.28
2023-05-14T09:21:43.657Z,35.30
2023-05-14T09:22:43.758Z,35.28
2023-05-14T09:23:43.812Z,35.09
2023-05-14T09:24:44.133Z,35.03
2023-05-14T09:25:43.975Z,36.40
2023-05-14T09:26:44.071Z,35.99
2023-05-14T09:27:44.168Z,35.03
2023-05-14T09:28:44.239Z,36.35
2023-05-14T09:29:44.284Z,37.05
2023-05-14T09:30:44.412Z,38.37
2023-05-14T09:31:44.491Z,38.70
2023-05-14T09:32:44.627Z,38.31
2023-05-14T09:33:44.617Z,38.78
2023-05-14T09:34:44.717Z,39.23
2023-05-14T09:35:44.796Z,39.95
2023-05-14T09:36:44.895Z,40.72
2023-05-14T09:37:44.983Z,39.60
2023-05-14T09:38:45.037Z,39.27
2023-05-14T09:39:45.136Z,38.93
2023-05-14T09:40:45.220Z,38.78
2023-05-14T09:41:45.315Z,37.69
2023-05-14T09:42:45.442Z,37.27
2023-05-14T09:43:45.492Z,37.37
2023-05-14T09:44:45.592Z,36.10
2023-05-14T09:45:45.639Z,34.06
2023-05-14T09:46:45.737Z,33.61
2023-05-14T09:47:46.113Z,34.28
2023-05-14T09:48:46.091Z,33.79
2023-05-14T09:49:45.970Z,35.78
2023-05-14T09:50:46.037Z,35.02
2023-05-14T09:51:46.088Z,36.65
2023-05-14T09:52:46.202Z,36.57
2023-05-14T09:53:46.256Z,35.80
2023-05-14T09:54:46.360Z,36.90
2023-05-14T09:55:46.429Z,38.40
2023-05-14T09:56:46.599Z,40.01
2023-05-14T09:57:46.597Z,39.52
2023-05-14T09:58:46.654Z,39.52
2023-05-14T09:59:46.740Z,40.17
2023-05-14T10:00:46.856Z,40.13
2023-05-14T10:01:46.894Z,38.03
2023-05-14T10:02:47.121Z,37.24
2023-05-14T10:03:47.073Z,36.80
2023-05-14T10:04:47.314Z,36.20
2023-05-14T10:05:47.238Z,37.07
2023-05-14T10:06:47.329Z,35.88
2023-05-14T10:07:47.447Z,36.57
2023-05-14T10:08:47.491Z,35.08
2023-05-14T10:09:47.552Z,34.78
2023-05-14T10:10:47.647Z,36.32
2023-05-14T10:11:47.700Z,37.66
2023-05-14T10:12:47.825Z,39.26
2023-05-14T10:13:47.870Z,38.18
2023-05-14T10:14:47.975Z,37.17
2023-05-14T10:15:48.025Z,36.00
2023-05-14T10:16:48.232Z,36.21
2023-05-14T10:17:48.233Z,36.50
2023-05-14T10:18:48.365Z,37.29
2023-05-14T10:19:48.357Z,38.20
2023-05-14T10:20:48.450Z,38.56
2023-05-14T10:21:48.506Z,35.83
2023-05-14T10:22:48.620Z,38.65
2023-05-14T10:23:48.666Z,38.35
2023-05-14T10:24:48.767Z,36.85
2023-05-14T10:25:48.826Z,37.24
2023-05-14T10:26:48.939Z,37.62
2023-05-14T10:27:49.024Z,38.00
2023-05-14T10:28:49.080Z,38.13
2023-05-14T10:29:49.132Z,38.33
2023-05-14T10:30:49.250Z,37.54
2023-05-14T10:31:49.363Z,38.15
2023-05-14T10:32:49.435Z,38.27
2023-05-14T10:33:49.410Z,38.45
2023-05-14T10:34:49.504Z,39.04
2023-05-14T10:35:49.603Z,38.55
2023-05-14T10:36:49.669Z,37.08
2023-05-14T10:37:49.739Z,39.04
2023-05-14T10:38:49.799Z,42.29
2023-05-14T10:39:49.850Z,42.58
2023-05-14T10:40:51.586Z,43.58
2023-05-14T10:41:50.018Z,43.28
2023-05-14T10:42:50.132Z,42.39
2023-05-14T10:43:50.178Z,41.69
2023-05-14T10:44:50.279Z,40.78
2023-05-14T10:45:50.330Z,40.38
2023-05-14T10:46:50.490Z,42.57
2023-05-14T10:47:50.570Z,43.46
2023-05-14T10:48:50.594Z,39.98
2023-05-14T10:49:50.645Z,42.29
2023-05-14T10:50:50.770Z,42.19
2023-05-14T10:51:50.820Z,42.99
2023-05-14T10:52:50.937Z,42.09
2023-05-14T10:53:51.009Z,42.88
2023-05-14T10:54:51.093Z,43.20
2023-05-14T10:55:51.143Z,44.20
2023-05-14T10:56:51.241Z,43.80
2023-05-14T10:57:51.370Z,44.81
2023-05-14T10:58:51.432Z,45.53
2023-05-14T10:59:51.507Z,45.33
2023-05-14T11:00:51.608Z,44.54
2023-05-14T11:01:51.728Z,44.46
2023-05-14T11:02:51.806Z,45.83
2023-05-14T11:03:51.880Z,46.72
2023-05-14T11:04:51.922Z,46.05
2023-05-14T11:05:52.010Z,44.38
2023-05-14T11:06:52.108Z,47.37
2023-05-14T11:07:52.168Z,46.59
2023-05-14T11:08:52.237Z,46.69
2023-05-14T11:09:52.324Z,47.59
2023-05-14T11:10:52.436Z,46.09
2023-05-14T11:11:52.517Z,46.00
2023-05-14T11:12:52.617Z,45.52
2023-05-14T11:13:52.679Z,46.12
2023-05-14T11:14:52.753Z,46.94
2023-05-14T11:15:52.848Z,46.26
2023-05-14T11:16:52.961Z,46.38
2023-05-14T11:17:53.077Z,46.76
2023-05-14T11:18:53.134Z,47.06
2023-05-14T11:19:53.192Z,47.26
2023-05-14T11:20:53.281Z,46.66
2023-05-14T11:21:53.368Z,46.04
2023-05-14T11:22:53.484Z,46.04
2023-05-14T11:23:53.523Z,45.14
2023-05-14T11:24:53.616Z,47.03
2023-05-14T11:25:53.761Z,45.92
2023-05-14T11:26:53.794Z,46.22
2023-05-14T11:27:53.926Z,44.90
2023-05-14T11:28:53.986Z,44.88
2023-05-14T11:29:54.068Z,44.68
2023-05-14T11:30:54.163Z,44.06
2023-05-14T11:31:54.249Z,44.36
2023-05-14T11:32:54.400Z,44.66
2023-05-14T11:33:54.367Z,44.84
2023-05-14T11:34:54.473Z,43.44
2023-05-14T11:35:54.553Z,43.05
2023-05-14T11:36:54.659Z,43.44
2023-05-14T11:37:54.724Z,43.66
2023-05-14T11:38:54.821Z,44.58
2023-05-14T11:39:54.876Z,43.60
2023-05-14T11:40:54.971Z,45.52
2023-05-14T11:41:55.072Z,46.22
2023-05-14T11:42:55.166Z,45.52
2023-05-14T11:43:55.213Z,44.72
2023-05-14T11:44:55.317Z,45.14
2023-05-14T11:45:55.486Z,44.76
2023-05-14T11:46:55.475Z,44.27
2023-05-14T11:47:55.633Z,44.89
2023-05-14T11:48:55.616Z,45.09
2023-05-14T11:49:55.717Z,47.00
2023-05-14T11:50:55.778Z,46.61
2023-05-14T11:51:55.883Z,45.71
2023-05-14T11:52:55.966Z,46.80
2023-05-14T11:53:56.035Z,48.22
2023-05-14T11:54:56.089Z,48.72
2023-05-14T11:55:56.177Z,49.22
2023-05-14T11:56:56.245Z,48.70
2023-05-14T11:57:56.344Z,48.40
2023-05-14T11:58:56.399Z,47.80
2023-05-14T11:59:56.490Z,48.13
2023-05-14T12:00:56.585Z,48.02
2023-05-14T12:01:56.656Z,48.52
2023-05-14T12:02:56.851Z,49.12
2023-05-14T12:03:56.876Z,49.55
2023-05-14T12:04:56.914Z,50.65
2023-05-14T12:05:56.936Z,50.74
2023-05-14T12:06:57.009Z,50.84
2023-05-14T12:07:57.134Z,50.74
2023-05-14T12:08:57.166Z,50.27
2023-05-14T12:09:57.264Z,49.07
2023-05-14T12:10:57.355Z,49.17
2023-05-14T12:11:57.450Z,49.35
2023-05-14T12:12:57.563Z,50.35
2023-05-14T12:13:57.613Z,51.04
2023-05-14T12:14:57.657Z,50.92
2023-05-14T12:15:57.780Z,50.72
2023-05-14T12:16:57.813Z,51.50
2023-05-14T12:17:57.957Z,50.70
2023-05-14T12:18:58.019Z,51.59
2023-05-14T12:19:58.065Z,51.97
2023-05-14T12:20:58.161Z,51.77
2023-05-14T12:21:58.255Z,51.15
2023-05-14T12:22:58.346Z,51.15
2023-05-14T12:23:58.433Z,50.95
2023-05-14T12:24:58.538Z,51.35
2023-05-14T12:25:58.630Z,50.25
2023-05-14T12:26:58.706Z,51.77
2023-05-14T12:27:58.819Z,52.27
2023-05-14T12:28:58.902Z,52.67
2023-05-14T12:30:09.248Z,52.09
2023-05-14T12:30:59.142Z,53.19
2023-05-14T12:31:59.202Z,52.79
2023-05-14T12:32:59.275Z,53.39
2023-05-14T12:33:59.321Z,53.29
2023-05-14T12:34:59.375Z,53.99
2023-05-14T12:36:04.755Z,53.27
2023-05-14T12:36:59.536Z,52.19
2023-05-14T12:37:59.648Z,52.39
2023-05-14T12:38:59.703Z,52.47
2023-05-14T12:39:59.808Z,53.66
2023-05-14T12:40:59.865Z,52.94
2023-05-14T12:41:59.967Z,52.14
2023-05-14T12:43:00.062Z,52.55
2023-05-14T12:44:00.166Z,53.44
2023-05-14T12:45:00.192Z,53.24
2023-05-14T12:46:00.292Z,54.34
2023-05-14T12:47:00.363Z,53.84
2023-05-14T12:48:00.484Z,53.94
2023-05-14T12:49:00.510Z,53.64
2023-05-14T12:50:00.622Z,53.64
2023-05-14T12:51:00.705Z,52.84
2023-05-14T12:52:19.428Z,52.14
2023-05-14T12:53:00.915Z,51.57
2023-05-14T12:54:00.948Z,52.57